Terminal Aerodrome Forecast
Issued by NWS Charleston, WV

Current Version | Previous Version | Text Only | Print | Product List | Glossary Off
Versions: 1 2 3 4 5 6 7 8 9 10 11 12 13 14 15 16 17 18 19 20 21 22 23 24 25 26

084
FTUS41 KRLX 271509 AAA
TAFPKB
TAF AMD
KPKB 271509Z 2715/2812 00000KT P6SM SCT015 SCT050
      TEMPO 2715/2716 BKN015
     FM271800 VRB04KT P6SM VCTS SCT045CB SCT070
     FM280100 VRB02KT P6SM SCT050 SCT070
     FM280600 00000KT 3SM BR SCT070=

USA.gov is the U.S. government's official web portal to all federal, state and local government web resources and services.